Time;durP1;ratioP1;P1;durP2;ratioP2;P2;SDS_P1;SDS_P2;PMS_P1;PMS_P2;Temp;Humidity;BMP_temperature;BMP_pressure;BME280_temperature;BME280_humidity;BME280_pressure;Samples;Min_cycle;Max_cycle;Signal;HPM_P1;HPM_P2
2021/06/18 00:02:19;;;;;;;11.82;10.73;;;;;;;;;;5093776;28;20028;-71
2021/06/18 00:04:45;;;;;;;12.07;11.07;;;;;;;;;;5093047;28;20020;-71
2021/06/18 00:07:11;;;;;;;11.98;10.98;;;;;;;;;;5093282;28;20474;-71
2021/06/18 00:09:38;;;;;;;11.15;10.10;;;;;;;;;;5093333;28;20028;-71
2021/06/18 00:12:04;;;;;;;9.80;9.00;;;;;;;;;;5093533;28;20106;-71
2021/06/18 00:14:30;;;;;;;14.00;10.85;;;;;;;;;;5093521;28;20028;-71
2021/06/18 00:16:56;;;;;;;10.38;9.35;;;;;;;;;;5093157;28;20026;-71
2021/06/18 00:19:23;;;;;;;12.88;11.73;;;;;;;;;;5093060;28;20652;-71
2021/06/18 00:21:49;;;;;;;16.23;14.52;;;;;;;;;;5096032;28;20028;-71
2021/06/18 00:24:15;;;;;;;15.10;13.80;;;;;;;;;;5097324;28;20024;-71
2021/06/18 00:26:41;;;;;;;14.52;13.23;;;;;;;;;;5097382;28;20071;-71
2021/06/18 00:29:07;;;;;;;15.32;12.55;;;;;;;;;;5097481;28;20101;-71
2021/06/18 00:31:33;;;;;;;14.93;12.95;;;;;;;;;;5097554;28;20024;-71
2021/06/18 00:33:59;;;;;;;13.75;12.65;;;;;;;;;;5097409;28;20024;-71
2021/06/18 00:36:25;;;;;;;13.20;12.10;;;;;;;;;;5096963;28;20023;-71
2021/06/18 00:38:51;;;;;;;14.27;12.32;;;;;;;;;;5096706;28;20541;-71
2021/06/18 00:41:17;;;;;;;13.10;11.90;;;;;;;;;;5097324;28;20024;-71
2021/06/18 00:43:43;;;;;;;12.45;11.23;;;;;;;;;;5096896;28;20032;-71
2021/06/18 00:46:10;;;;;;;13.75;12.50;;;;;;;;;;5096883;28;20044;-71
2021/06/18 00:48:36;;;;;;;13.40;12.18;;;;;;;;;;5096874;28;20436;-71
2021/06/18 00:51:02;;;;;;;12.60;11.50;;;;;;;;;;5096883;28;20052;-71
2021/06/18 00:53:28;;;;;;;11.02;9.98;;;;;;;;;;5096557;28;20016;-71
2021/06/18 00:55:54;;;;;;;13.20;11.98;;;;;;;;;;5097351;28;20032;-71
2021/06/18 00:58:20;;;;;;;11.90;10.80;;;;;;;;;;5096848;28;20050;-71
2021/06/18 01:00:46;;;;;;;11.15;10.15;;;;;;;;;;5096651;28;20373;-71
2021/06/18 01:03:12;;;;;;;12.20;11.20;;;;;;;;;;5096816;28;20024;-71
2021/06/18 01:05:38;;;;;;;12.45;11.35;;;;;;;;;;5096371;28;20462;-71
2021/06/18 01:08:09;;;;;;;11.63;10.52;;;;;;;;;;5096313;28;20032;-71
2021/06/18 01:10:50;;;;;;;11.43;10.43;;;;;;;;;;5096480;28;20355;-71
2021/06/18 01:13:32;;;;;;;12.00;10.70;;;;;;;;;;5096940;28;20024;-71
2021/06/18 01:16:15;;;;;;;12.48;11.23;;;;;;;;;;5096393;28;20258;-71
2021/06/18 01:18:43;;;;;;;10.75;9.65;;;;;;;;;;5096126;28;20040;-71
2021/06/18 01:21:19;;;;;;;11.02;10.13;;;;;;;;;;5096380;28;20028;-71
2021/06/18 01:24:05;;;;;;;11.48;10.57;;;;;;;;;;5096708;28;20043;-71
2021/06/18 01:26:37;;;;;;;12.98;11.07;;;;;;;;;;5081175;28;20044;-71
2021/06/18 01:29:03;;;;;;;11.25;10.32;;;;;;;;;;5095629;28;20420;-71
2021/06/18 01:31:30;;;;;;;10.57;9.63;;;;;;;;;;5096215;28;20020;-71
2021/06/18 01:33:58;;;;;;;11.82;10.77;;;;;;;;;;5095267;28;20474;-71
2021/06/18 01:36:24;;;;;;;12.75;11.38;;;;;;;;;;5096081;28;20020;-71
2021/06/18 01:38:51;;;;;;;11.77;10.57;;;;;;;;;;5096053;28;20028;-71
2021/06/18 01:41:19;;;;;;;11.80;10.52;;;;;;;;;;5095750;28;20021;-71
2021/06/18 01:43:45;;;;;;;13.52;11.82;;;;;;;;;;5095951;28;20047;-71
2021/06/18 01:46:13;;;;;;;11.85;10.80;;;;;;;;;;5095488;28;20390;-71
2021/06/18 01:48:40;;;;;;;11.77;10.82;;;;;;;;;;5096039;28;20024;-71
2021/06/18 01:51:06;;;;;;;11.02;9.93;;;;;;;;;;5095349;28;20048;-71
2021/06/18 01:53:32;;;;;;;10.27;9.38;;;;;;;;;;5095535;28;20492;-71
2021/06/18 01:55:58;;;;;;;12.23;10.88;;;;;;;;;;5095581;28;20032;-71
2021/06/18 01:58:24;;;;;;;11.73;10.63;;;;;;;;;;5095594;28;20807;-71
2021/06/18 02:00:50;;;;;;;11.57;9.95;;;;;;;;;;5095578;28;20024;-71
2021/06/18 02:03:21;;;;;;;11.13;10.13;;;;;;;;;;5096084;28;20033;-71
2021/06/18 02:05:47;;;;;;;13.13;10.55;;;;;;;;;;5095545;28;20024;-71
2021/06/18 02:08:14;;;;;;;10.98;10.02;;;;;;;;;;5095363;28;20393;-71
2021/06/18 02:10:40;;;;;;;10.75;9.68;;;;;;;;;;5095122;28;20032;-71
2021/06/18 02:13:08;;;;;;;15.00;9.50;;;;;;;;;;5094941;28;20462;-71
2021/06/18 02:15:34;;;;;;;10.30;9.43;;;;;;;;;;5095868;28;20066;-71
2021/06/18 02:18:00;;;;;;;10.75;9.75;;;;;;;;;;5095127;28;20141;-71
2021/06/18 02:20:26;;;;;;;11.10;10.10;;;;;;;;;;5095236;28;20060;-71
2021/06/18 02:22:52;;;;;;;9.90;8.93;;;;;;;;;;5094830;28;20035;-71
2021/06/18 02:25:18;;;;;;;10.27;9.30;;;;;;;;;;5094710;28;20032;-71
2021/06/18 02:27:44;;;;;;;11.25;10.23;;;;;;;;;;5095097;28;20457;-71
2021/06/18 02:30:12;;;;;;;9.45;8.68;;;;;;;;;;5095284;28;20039;-71
2021/06/18 02:32:38;;;;;;;12.30;9.27;;;;;;;;;;5095212;28;20049;-71
2021/06/18 02:35:04;;;;;;;10.82;9.73;;;;;;;;;;5094592;28;20035;-71
2021/06/18 02:37:30;;;;;;;10.75;9.75;;;;;;;;;;5094844;28;20051;-71
2021/06/18 02:39:56;;;;;;;10.32;9.43;;;;;;;;;;5094620;28;20024;-71
2021/06/18 02:42:24;;;;;;;10.77;9.77;;;;;;;;;;5094895;28;20028;-71
2021/06/18 02:44:50;;;;;;;10.98;10.07;;;;;;;;;;5093460;28;20024;-71
2021/06/18 02:47:22;;;;;;;12.00;9.05;;;;;;;;;;5095004;28;20462;-71
2021/06/18 02:49:57;;;;;;;10.63;9.63;;;;;;;;;;5094731;28;20055;-71
2021/06/18 02:52:26;;;;;;;11.00;10.10;;;;;;;;;;5094790;28;20028;-71
2021/06/18 02:55:12;;;;;;;10.90;9.90;;;;;;;;;;5094175;28;20032;-71
2021/06/18 02:57:58;;;;;;;10.38;9.48;;;;;;;;;;5079479;28;20028;-71
2021/06/18 03:00:25;;;;;;;12.50;9.13;;;;;;;;;;5079862;28;20129;-71
2021/06/18 03:02:53;;;;;;;10.63;9.63;;;;;;;;;;5094098;28;20077;-71
2021/06/18 03:05:20;;;;;;;10.73;9.75;;;;;;;;;;5094260;28;20031;-71
2021/06/18 03:07:57;;;;;;;11.77;10.40;;;;;;;;;;5094508;28;20067;-70
2021/06/18 03:10:25;;;;;;;20.10;10.02;;;;;;;;;;5094519;28;20107;-71
2021/06/18 03:12:51;;;;;;;10.15;8.95;;;;;;;;;;5093935;28;20028;-71
2021/06/18 03:15:18;;;;;;;12.60;9.68;;;;;;;;;;5094016;28;20028;-71
2021/06/18 03:17:44;;;;;;;68.18;32.03;;;;;;;;;;5094286;28;20024;-71
2021/06/18 03:20:14;;;;;;;56.63;26.85;;;;;;;;;;5094131;28;20032;-71
2021/06/18 03:22:40;;;;;;;39.15;20.73;;;;;;;;;;5094117;28;20067;-71
2021/06/18 03:25:06;;;;;;;24.70;16.73;;;;;;;;;;5093815;28;20053;-70
2021/06/18 03:27:33;;;;;;;23.23;15.77;;;;;;;;;;5094021;28;20032;-71
2021/06/18 03:30:00;;;;;;;21.63;13.00;;;;;;;;;;5094175;28;20024;-71
2021/06/18 03:32:26;;;;;;;22.50;15.07;;;;;;;;;;5093584;28;20028;-71
2021/06/18 03:34:52;;;;;;;23.20;14.48;;;;;;;;;;5093735;28;20046;-71
2021/06/18 03:37:18;;;;;;;21.08;13.52;;;;;;;;;;5094302;28;20437;-71
2021/06/18 03:39:44;;;;;;;21.23;12.98;;;;;;;;;;5094040;28;20025;-71
2021/06/18 03:42:11;;;;;;;15.30;11.75;;;;;;;;;;5093677;28;20114;-71
2021/06/18 03:44:37;;;;;;;14.50;11.10;;;;;;;;;;5093533;28;20027;-71
2021/06/18 03:47:03;;;;;;;18.77;11.73;;;;;;;;;;5093459;28;20032;-71
2021/06/18 03:49:29;;;;;;;15.05;12.07;;;;;;;;;;5093433;28;20052;-71
2021/06/18 03:51:55;;;;;;;15.85;11.93;;;;;;;;;;5094104;28;20020;-71
2021/06/18 03:54:22;;;;;;;12.70;11.32;;;;;;;;;;5093692;28;20110;-71
2021/06/18 03:56:48;;;;;;;12.00;10.80;;;;;;;;;;5093116;28;20027;-71
2021/06/18 03:59:16;;;;;;;13.90;10.80;;;;;;;;;;5093381;28;20023;-71
2021/06/18 04:01:43;;;;;;;15.25;11.20;;;;;;;;;;5093411;28;20525;-71
2021/06/18 04:04:09;;;;;;;21.67;10.98;;;;;;;;;;5093903;28;20111;-71
2021/06/18 04:06:35;;;;;;;12.23;11.02;;;;;;;;;;5093490;28;20040;-71
2021/06/18 04:09:01;;;;;;;19.02;10.82;;;;;;;;;;5093062;28;20878;-71
2021/06/18 04:11:27;;;;;;;14.88;11.15;;;;;;;;;;5093304;28;20028;-71
2021/06/18 04:13:53;;;;;;;15.07;10.90;;;;;;;;;;5093206;28;20024;-71
2021/06/18 04:16:19;;;;;;;14.75;11.25;;;;;;;;;;5093088;28;20020;-71
2021/06/18 04:18:46;;;;;;;13.38;10.20;;;;;;;;;;5093261;28;20494;-71
2021/06/18 04:21:20;;;;;;;14.95;9.80;;;;;;;;;;5093391;28;20029;-71
2021/06/18 04:23:46;;;;;;;10.93;9.95;;;;;;;;;;5093701;28;20033;-71
2021/06/18 04:26:12;;;;;;;12.70;11.50;;;;;;;;;;5093389;28;20369;-72
2021/06/18 04:28:39;;;;;;;12.43;9.38;;;;;;;;;;5093132;28;20036;-71
2021/06/18 04:31:05;;;;;;;10.48;9.48;;;;;;;;;;5093437;28;20020;-71
2021/06/18 04:33:31;;;;;;;12.82;11.52;;;;;;;;;;5093936;28;20458;-70
2021/06/18 04:35:57;;;;;;;10.30;9.35;;;;;;;;;;5093124;28;20031;-71
2021/06/18 04:38:23;;;;;;;15.40;11.27;;;;;;;;;;5093178;28;20416;-71
2021/06/18 04:40:51;;;;;;;11.68;10.57;;;;;;;;;;5093011;28;20025;-71
2021/06/18 04:43:17;;;;;;;12.45;11.02;;;;;;;;;;5092905;28;20035;-71
2021/06/18 04:45:43;;;;;;;11.30;10.20;;;;;;;;;;5093533;28;20032;-71
2021/06/18 04:48:09;;;;;;;13.50;10.52;;;;;;;;;;5092910;28;20408;-72
2021/06/18 04:50:35;;;;;;;14.20;11.13;;;;;;;;;;5092981;28;20052;-71
2021/06/18 04:53:01;;;;;;;12.20;11.00;;;;;;;;;;5092749;28;20031;-71
2021/06/18 04:55:28;;;;;;;19.83;10.75;;;;;;;;;;5091884;28;20020;-71
2021/06/18 04:57:54;;;;;;;12.43;9.52;;;;;;;;;;5093034;28;20050;-71
2021/06/18 05:00:24;;;;;;;11.32;10.25;;;;;;;;;;5092880;28;20111;-71
2021/06/18 05:02:50;;;;;;;15.15;10.95;;;;;;;;;;5092492;28;20023;-71
2021/06/18 05:05:16;;;;;;;12.98;9.82;;;;;;;;;;5092702;28;20555;-70
2021/06/18 05:07:42;;;;;;;14.27;8.43;;;;;;;;;;5093453;28;20043;-70
2021/06/18 05:10:09;;;;;;;15.38;10.73;;;;;;;;;;5098386;28;20026;-71
2021/06/18 05:12:35;;;;;;;18.02;10.20;;;;;;;;;;5100542;28;20031;-70
2021/06/18 05:15:02;;;;;;;11.88;10.27;;;;;;;;;;5104539;28;20020;-71
2021/06/18 05:17:28;;;;;;;20.52;10.07;;;;;;;;;;5104081;28;20039;-71
2021/06/18 05:19:54;;;;;;;10.38;9.38;;;;;;;;;;5106263;28;20415;-71
2021/06/18 05:22:20;;;;;;;11.32;9.68;;;;;;;;;;5104724;28;20023;-70
2021/06/18 05:24:46;;;;;;;15.82;10.35;;;;;;;;;;5104072;28;20016;-71
2021/06/18 05:27:12;;;;;;;12.82;10.05;;;;;;;;;;5105509;28;20027;-71
2021/06/18 05:29:38;;;;;;;17.95;11.25;;;;;;;;;;5104497;28;20019;-71
2021/06/18 05:32:05;;;;;;;14.55;10.23;;;;;;;;;;5104576;28;20028;-71
2021/06/18 05:34:31;;;;;;;20.00;10.95;;;;;;;;;;5109023;28;20385;-71
2021/06/18 05:36:57;;;;;;;23.08;11.38;;;;;;;;;;5106565;28;20024;-71
2021/06/18 05:39:24;;;;;;;12.23;10.60;;;;;;;;;;5103117;28;20027;-72
2021/06/18 05:41:50;;;;;;;11.02;10.00;;;;;;;;;;5104808;28;20496;-71
2021/06/18 05:44:16;;;;;;;12.82;11.50;;;;;;;;;;5105080;28;20032;-71
2021/06/18 05:46:42;;;;;;;11.13;10.13;;;;;;;;;;5103033;28;20431;-72
2021/06/18 05:49:08;;;;;;;13.02;11.73;;;;;;;;;;5104729;28;20054;-71
2021/06/18 05:51:34;;;;;;;12.75;10.82;;;;;;;;;;5107622;28;20016;-71
2021/06/18 05:54:00;;;;;;;14.38;9.45;;;;;;;;;;5105211;28;20124;-72
2021/06/18 05:56:27;;;;;;;12.15;10.82;;;;;;;;;;5104119;28;20432;-71
2021/06/18 05:58:53;;;;;;;11.70;10.23;;;;;;;;;;5104045;28;20034;-70
2021/06/18 06:01:19;;;;;;;13.02;10.10;;;;;;;;;;5105652;28;20027;-70
2021/06/18 06:03:45;;;;;;;12.23;10.70;;;;;;;;;;5104142;28;20020;-71
2021/06/18 06:06:11;;;;;;;13.88;11.45;;;;;;;;;;5103506;28;20126;-71
2021/06/18 06:08:38;;;;;;;12.57;11.27;;;;;;;;;;5105166;28;20023;-71
2021/06/18 06:11:04;;;;;;;11.00;9.95;;;;;;;;;;5102273;28;20472;-71
2021/06/18 06:13:30;;;;;;;23.40;11.02;;;;;;;;;;5104830;28;20054;-71
2021/06/18 06:15:56;;;;;;;11.85;9.82;;;;;;;;;;5103237;28;20048;-72
2021/06/18 06:18:22;;;;;;;14.32;10.93;;;;;;;;;;5104278;28;20022;-71
2021/06/18 06:20:48;;;;;;;11.35;10.18;;;;;;;;;;5104035;28;20385;-70
2021/06/18 06:23:14;;;;;;;11.23;10.23;;;;;;;;;;5102486;28;20085;-70
2021/06/18 06:25:41;;;;;;;10.98;10.07;;;;;;;;;;5104732;28;20023;-70
2021/06/18 06:28:08;;;;;;;12.40;10.55;;;;;;;;;;5103357;28;20031;-71
2021/06/18 06:30:34;;;;;;;12.52;9.65;;;;;;;;;;5102761;28;20038;-71
2021/06/18 06:33:00;;;;;;;11.10;10.10;;;;;;;;;;5104941;28;20385;-71
2021/06/18 06:35:26;;;;;;;13.00;11.80;;;;;;;;;;5103891;28;20047;-71
2021/06/18 06:37:53;;;;;;;10.80;9.77;;;;;;;;;;5099686;28;20039;-72
2021/06/18 06:40:20;;;;;;;12.32;10.32;;;;;;;;;;5096825;28;20115;-71
2021/06/18 06:42:48;;;;;;;10.38;9.55;;;;;;;;;;5100398;28;20027;-71
2021/06/18 06:45:15;;;;;;;10.35;9.38;;;;;;;;;;5102257;28;20048;-71
2021/06/18 06:47:41;;;;;;;10.80;9.80;;;;;;;;;;5100143;28;20042;-71
2021/06/18 06:50:10;;;;;;;10.98;9.68;;;;;;;;;;5102911;28;20393;-72
2021/06/18 06:52:36;;;;;;;11.60;10.48;;;;;;;;;;5103640;28;20024;-71
2021/06/18 06:55:02;;;;;;;11.60;10.15;;;;;;;;;;5103867;28;20036;-71
2021/06/18 06:57:28;;;;;;;11.95;10.75;;;;;;;;;;5105372;28;20037;-70
2021/06/18 06:59:54;;;;;;;10.13;9.23;;;;;;;;;;5114313;28;20023;-71
2021/06/18 07:02:20;;;;;;;10.15;9.30;;;;;;;;;;5114787;28;20069;-71
2021/06/18 07:04:46;;;;;;;10.55;9.55;;;;;;;;;;5114345;28;20465;-71
2021/06/18 07:07:13;;;;;;;10.70;9.80;;;;;;;;;;5114126;28;20076;-71
2021/06/18 07:09:39;;;;;;;9.88;8.90;;;;;;;;;;5107487;28;20046;-70
2021/06/18 07:12:06;;;;;;;33.85;9.77;;;;;;;;;;5101646;28;20032;-70
2021/06/18 07:14:32;;;;;;;14.35;10.57;;;;;;;;;;5103332;28;20020;-71
2021/06/18 07:16:59;;;;;;;12.13;9.63;;;;;;;;;;5102855;28;20526;-72
2021/06/18 07:19:25;;;;;;;10.95;9.90;;;;;;;;;;5101495;28;20050;-70
2021/06/18 07:21:51;;;;;;;10.73;9.75;;;;;;;;;;5103096;28;20114;-70
2021/06/18 07:24:18;;;;;;;12.13;9.57;;;;;;;;;;5103287;28;20023;-71
2021/06/18 07:26:44;;;;;;;13.48;9.57;;;;;;;;;;5099497;28;20032;-72
2021/06/18 07:29:10;;;;;;;12.07;8.70;;;;;;;;;;5102663;28;20068;-71
2021/06/18 07:31:36;;;;;;;11.23;9.93;;;;;;;;;;5102849;28;20024;-71
2021/06/18 07:34:03;;;;;;;10.38;9.18;;;;;;;;;;5101217;28;20020;-70
2021/06/18 07:36:29;;;;;;;12.88;10.40;;;;;;;;;;5104108;28;20380;-70
2021/06/18 07:38:55;;;;;;;12.15;9.27;;;;;;;;;;5112895;28;20032;-70
2021/06/18 07:41:21;;;;;;;9.77;8.98;;;;;;;;;;5113568;28;20400;-71
2021/06/18 07:43:47;;;;;;;10.48;9.20;;;;;;;;;;5113896;28;20024;-72
2021/06/18 07:46:14;;;;;;;15.98;8.55;;;;;;;;;;5113536;28;20364;-71
2021/06/18 07:48:40;;;;;;;9.68;8.63;;;;;;;;;;5106812;28;20032;-71
2021/06/18 07:51:06;;;;;;;9.48;8.63;;;;;;;;;;5101547;28;20092;-71
2021/06/18 07:53:33;;;;;;;10.77;8.38;;;;;;;;;;5100463;28;20032;-72
2021/06/18 07:55:59;;;;;;;9.70;8.70;;;;;;;;;;5102984;28;20839;-70
2021/06/18 07:58:25;;;;;;;9.80;8.75;;;;;;;;;;5102185;28;20027;-71
2021/06/18 08:00:51;;;;;;;10.07;9.07;;;;;;;;;;5101493;28;20026;-72
2021/06/18 08:03:17;;;;;;;9.60;8.80;;;;;;;;;;5103359;28;20032;-72
2021/06/18 08:05:43;;;;;;;9.63;8.77;;;;;;;;;;5101256;28;20039;-72
2021/06/18 08:08:12;;;;;;;9.20;8.40;;;;;;;;;;5101357;28;20362;-72
2021/06/18 08:10:38;;;;;;;9.93;9.00;;;;;;;;;;5103601;28;20346;-72
2021/06/18 08:13:04;;;;;;;11.68;8.65;;;;;;;;;;5101539;28;20032;-71
2021/06/18 08:15:30;;;;;;;8.93;8.13;;;;;;;;;;5101675;28;20022;-72
2021/06/18 08:17:56;;;;;;;9.02;8.23;;;;;;;;;;5102600;28;20019;-72
2021/06/18 08:20:25;;;;;;;9.82;8.30;;;;;;;;;;5102602;28;20026;-72
2021/06/18 08:22:51;;;;;;;15.00;9.05;;;;;;;;;;5101804;28;20024;-71
2021/06/18 08:25:17;;;;;;;8.60;7.78;;;;;;;;;;5100269;28;20043;-72
2021/06/18 08:27:43;;;;;;;9.13;8.32;;;;;;;;;;5101083;28;20450;-71
2021/06/18 08:30:10;;;;;;;11.82;8.10;;;;;;;;;;5096909;28;20016;-71
2021/06/18 08:32:36;;;;;;;11.93;9.43;;;;;;;;;;5093071;28;20028;-71
2021/06/18 08:35:02;;;;;;;8.82;7.93;;;;;;;;;;5093094;28;20887;-71
2021/06/18 08:37:28;;;;;;;8.43;7.57;;;;;;;;;;5092990;28;20028;-71
2021/06/18 08:39:54;;;;;;;11.38;8.15;;;;;;;;;;5103455;28;20484;-72
2021/06/18 08:42:20;;;;;;;8.30;7.60;;;;;;;;;;5114936;28;20031;-72
2021/06/18 08:44:46;;;;;;;8.77;7.85;;;;;;;;;;5116179;28;20473;-71
2021/06/18 08:47:13;;;;;;;8.57;7.75;;;;;;;;;;5115526;28;20084;-71
2021/06/18 08:49:39;;;;;;;8.55;7.85;;;;;;;;;;5105469;28;20052;-72
2021/06/18 08:52:05;;;;;;;9.50;8.20;;;;;;;;;;5104676;28;20054;-72
2021/06/18 08:54:43;;;;;;;8.88;8.07;;;;;;;;;;5106119;28;20027;-72
2021/06/18 08:57:10;;;;;;;8.68;7.82;;;;;;;;;;5106492;28;20015;-72
2021/06/18 08:59:36;;;;;;;8.15;7.07;;;;;;;;;;5105079;28;20024;-72
2021/06/18 09:02:02;;;;;;;10.00;7.45;;;;;;;;;;5104517;28;20057;-72
2021/06/18 09:04:28;;;;;;;7.60;6.90;;;;;;;;;;5106009;28;20056;-71
2021/06/18 09:06:58;;;;;;;8.82;8.02;;;;;;;;;;5107038;28;20038;-71
2021/06/18 09:09:25;;;;;;;8.65;7.88;;;;;;;;;;5115772;28;20027;-71
2021/06/18 09:11:56;;;;;;;7.22;6.55;;;;;;;;;;5106522;28;20538;-72
2021/06/18 09:14:24;;;;;;;13.95;7.70;;;;;;;;;;5103649;28;20053;-70
2021/06/18 09:17:01;;;;;;;8.68;7.25;;;;;;;;;;5105534;28;20023;-71
2021/06/18 09:19:27;;;;;;;8.77;7.88;;;;;;;;;;5105470;28;20020;-71
2021/06/18 09:21:57;;;;;;;9.05;8.25;;;;;;;;;;5104582;28;20067;-71
2021/06/18 09:24:31;;;;;;;8.43;7.72;;;;;;;;;;5104230;28;20027;-71
2021/06/18 09:26:57;;;;;;;8.90;7.43;;;;;;;;;;5103793;28;20519;-72
2021/06/18 09:29:24;;;;;;;9.95;7.20;;;;;;;;;;5105561;28;20027;-72
2021/06/18 09:31:51;;;;;;;8.15;7.43;;;;;;;;;;5104240;28;20024;-71
2021/06/18 09:37:29;;;;;;;8.27;7.55;;;;;;;;;;5078999;28;20036;-71
2021/06/18 09:40:07;;;;;;;9.07;7.50;;;;;;;;;;5104636;28;20399;-70
2021/06/18 09:42:37;;;;;;;7.72;6.85;;;;;;;;;;5102334;28;20031;-71
2021/06/18 09:45:06;;;;;;;11.48;7.90;;;;;;;;;;5105348;28;20019;-72
2021/06/18 09:47:32;;;;;;;8.25;7.40;;;;;;;;;;5104008;28;20020;-72
2021/06/18 09:49:58;;;;;;;14.10;6.53;;;;;;;;;;5103673;28;20039;-71
2021/06/18 09:52:25;;;;;;;8.75;6.68;;;;;;;;;;5105225;28;20012;-71
2021/06/18 09:54:53;;;;;;;8.18;7.57;;;;;;;;;;5103506;28;20027;-70
2021/06/18 09:57:20;;;;;;;7.43;6.72;;;;;;;;;;5103330;28;20132;-72
2021/06/18 09:59:47;;;;;;;8.13;7.35;;;;;;;;;;5105260;28;20094;-70
2021/06/18 10:02:13;;;;;;;8.13;7.32;;;;;;;;;;5104187;28;20031;-70
2021/06/18 10:04:40;;;;;;;8.70;6.72;;;;;;;;;;5103368;28;20039;-71
2021/06/18 10:07:06;;;;;;;7.72;6.45;;;;;;;;;;5102997;28;20191;-71
2021/06/18 10:09:33;;;;;;;13.23;7.65;;;;;;;;;;5104243;28;20016;-72
2021/06/18 10:11:59;;;;;;;7.63;7.03;;;;;;;;;;5104152;28;20121;-72
2021/06/18 10:14:25;;;;;;;9.90;7.65;;;;;;;;;;5102819;28;20369;-71
2021/06/18 10:16:51;;;;;;;7.75;7.05;;;;;;;;;;5104217;28;20012;-71
2021/06/18 10:19:18;;;;;;;7.85;7.05;;;;;;;;;;5104628;28;20043;-71
2021/06/18 10:21:48;;;;;;;7.68;7.07;;;;;;;;;;5103233;28;20058;-71
2021/06/18 10:24:16;;;;;;;7.60;7.00;;;;;;;;;;5105403;28;20024;-70
2021/06/18 10:26:42;;;;;;;7.30;6.70;;;;;;;;;;5102064;28;20085;-72
2021/06/18 10:29:08;;;;;;;7.65;6.78;;;;;;;;;;5104857;28;20034;-72
2021/06/18 10:31:35;;;;;;;8.15;7.32;;;;;;;;;;5103626;28;20047;-71
2021/06/18 10:34:03;;;;;;;7.65;6.95;;;;;;;;;;5102333;28;20674;-70
2021/06/18 10:36:29;;;;;;;7.32;6.65;;;;;;;;;;5104144;28;20028;-70
2021/06/18 10:39:15;;;;;;;7.88;7.00;;;;;;;;;;5103623;28;20410;-71
2021/06/18 10:41:49;;;;;;;7.72;7.13;;;;;;;;;;5088730;28;20477;-70
2021/06/18 10:44:35;;;;;;;7.75;6.85;;;;;;;;;;5106697;28;20020;-71
2021/06/18 10:47:03;;;;;;;7.53;6.82;;;;;;;;;;5089583;28;20094;-70
2021/06/18 10:49:44;;;;;;;8.05;6.75;;;;;;;;;;5114549;28;20052;-70
2021/06/18 10:52:18;;;;;;;9.10;7.07;;;;;;;;;;5103331;28;20080;-70
2021/06/18 10:54:46;;;;;;;8.05;7.35;;;;;;;;;;5102872;28;20493;-70
2021/06/18 10:57:27;;;;;;;7.05;6.45;;;;;;;;;;5102174;28;20051;-71
2021/06/18 10:59:54;;;;;;;8.15;7.45;;;;;;;;;;5106688;28;20032;-70
2021/06/18 11:02:31;;;;;;;6.90;6.25;;;;;;;;;;5111173;28;20059;-71
2021/06/18 11:04:58;;;;;;;7.43;6.57;;;;;;;;;;5101961;28;20095;-71
2021/06/18 11:07:24;;;;;;;9.68;7.50;;;;;;;;;;5103315;28;20485;-70
2021/06/18 11:09:51;;;;;;;7.90;6.50;;;;;;;;;;5103107;28;20024;-71
2021/06/18 11:12:33;;;;;;;7.72;7.03;;;;;;;;;;5101467;28;20024;-71
2021/06/18 11:15:01;;;;;;;13.00;6.60;;;;;;;;;;5101730;28;20059;-71
2021/06/18 11:17:45;;;;;;;7.90;7.05;;;;;;;;;;5102514;28;20054;-72
2021/06/18 11:20:12;;;;;;;6.82;6.25;;;;;;;;;;5103798;28;20210;-71
2021/06/18 11:22:47;;;;;;;8.43;7.63;;;;;;;;;;5101128;28;20048;-72
2021/06/18 11:25:33;;;;;;;6.88;6.28;;;;;;;;;;5101780;28;20028;-71
2021/06/18 11:28:20;;;;;;;7.90;7.22;;;;;;;;;;5089456;28;20027;-72
2021/06/18 11:31:07;;;;;;;7.47;6.82;;;;;;;;;;5089902;28;20027;-70
2021/06/18 11:33:45;;;;;;;7.93;7.13;;;;;;;;;;5088622;28;20150;-72
2021/06/18 11:36:33;;;;;;;7.50;6.85;;;;;;;;;;5103592;28;20024;-71
2021/06/18 11:39:10;;;;;;;6.60;6.00;;;;;;;;;;5086586;28;20420;-69
2021/06/18 11:41:40;;;;;;;9.52;6.93;;;;;;;;;;5100847;28;20107;-72
2021/06/18 11:44:07;;;;;;;7.53;6.80;;;;;;;;;;5102251;28;20106;-70
2021/06/18 11:46:33;;;;;;;7.70;6.90;;;;;;;;;;5102896;28;20503;-73
2021/06/18 11:49:18;;;;;;;8.07;7.28;;;;;;;;;;5103606;28;20027;-71
2021/06/18 11:51:44;;;;;;;6.63;6.00;;;;;;;;;;5103156;28;20020;-71
2021/06/18 11:54:10;;;;;;;7.43;6.68;;;;;;;;;;5101481;28;20368;-70
2021/06/18 11:56:36;;;;;;;7.47;6.88;;;;;;;;;;5102230;28;20019;-70
2021/06/18 11:59:03;;;;;;;7.65;7.05;;;;;;;;;;5102621;28;20089;-70
2021/06/18 12:01:30;;;;;;;11.93;7.15;;;;;;;;;;5100967;28;20020;-72
2021/06/18 12:03:57;;;;;;;6.50;6.00;;;;;;;;;;5106529;28;20043;-72
2021/06/18 12:06:24;;;;;;;11.13;7.05;;;;;;;;;;5109592;28;20028;-73
2021/06/18 12:09:00;;;;;;;7.50;6.85;;;;;;;;;;5102145;28;20469;-72
2021/06/18 12:11:26;;;;;;;10.75;6.95;;;;;;;;;;5113786;28;20027;-73
2021/06/18 12:13:53;;;;;;;7.35;6.80;;;;;;;;;;5109479;28;20059;-72
2021/06/18 12:16:19;;;;;;;9.98;5.75;;;;;;;;;;5101524;28;20023;-73
2021/06/18 12:18:45;;;;;;;7.55;6.53;;;;;;;;;;5103544;28;20110;-71
2021/06/18 12:21:12;;;;;;;9.73;7.53;;;;;;;;;;5106767;28;20431;-71
2021/06/18 12:23:39;;;;;;;6.28;5.78;;;;;;;;;;5106126;28;20063;-72
2021/06/18 12:26:06;;;;;;;6.72;6.13;;;;;;;;;;5114282;28;20032;-71
2021/06/18 12:28:32;;;;;;;12.63;6.05;;;;;;;;;;5110344;28;20032;-71
2021/06/18 12:30:58;;;;;;;6.18;5.57;;;;;;;;;;5113680;28;20469;-71
2021/06/18 12:33:24;;;;;;;5.93;5.43;;;;;;;;;;5116885;28;20080;-72
2021/06/18 12:35:50;;;;;;;6.05;5.55;;;;;;;;;;5116916;28;20038;-72
2021/06/18 12:38:16;;;;;;;7.03;6.38;;;;;;;;;;5105556;28;20376;-70
2021/06/18 12:40:46;;;;;;;10.43;6.65;;;;;;;;;;5116868;28;20384;-70
2021/06/18 12:43:12;;;;;;;7.35;6.57;;;;;;;;;;5107732;28;20107;-71
2021/06/18 12:45:44;;;;;;;9.43;6.97;;;;;;;;;;5096633;28;20130;-70
2021/06/18 12:48:14;;;;;;;8.02;5.38;;;;;;;;;;5096808;28;20482;-71
2021/06/18 12:50:43;;;;;;;7.80;7.13;;;;;;;;;;5096318;28;20056;-71
2021/06/18 12:53:12;;;;;;;6.93;6.32;;;;;;;;;;5095271;28;20137;-69
2021/06/18 12:55:39;;;;;;;9.52;6.05;;;;;;;;;;5096865;28;20032;-71
2021/06/18 12:58:06;;;;;;;6.82;6.22;;;;;;;;;;5096082;28;20024;-70
2021/06/18 13:00:32;;;;;;;7.53;6.85;;;;;;;;;;5096523;28;20059;-70
2021/06/18 13:02:58;;;;;;;9.32;8.43;;;;;;;;;;5093673;28;20103;-72
2021/06/18 13:05:27;;;;;;;8.93;8.20;;;;;;;;;;5096236;28;20054;-71
2021/06/18 13:07:53;;;;;;;12.73;7.97;;;;;;;;;;5096405;28;20077;-72
2021/06/18 13:10:19;;;;;;;7.85;7.18;;;;;;;;;;5096048;28;20023;-72
2021/06/18 13:13:00;;;;;;;6.72;6.20;;;;;;;;;;5094544;28;20023;-71
2021/06/18 13:15:27;;;;;;;7.15;6.47;;;;;;;;;;5096050;28;20050;-70
2021/06/18 13:17:54;;;;;;;6.78;6.18;;;;;;;;;;5095794;28;20099;-69
2021/06/18 13:20:36;;;;;;;6.70;6.10;;;;;;;;;;5096087;28;20021;-71
2021/06/18 13:23:02;;;;;;;;;;;;;;;;;;5094847;28;20027;-71
2021/06/18 13:25:29;;;;;;;7.82;7.07;;;;;;;;;;5096128;28;19942;-70
2021/06/18 13:28:00;;;;;;;8.38;6.68;;;;;;;;;;5095670;28;20024;-69
2021/06/18 13:30:26;;;;;;;7.57;6.82;;;;;;;;;;5095225;28;20028;-72
2021/06/18 13:32:52;;;;;;;6.72;6.22;;;;;;;;;;5094869;28;20496;-72
2021/06/18 13:35:18;;;;;;;8.18;7.57;;;;;;;;;;5096647;28;20032;-71
2021/06/18 13:37:45;;;;;;;9.77;8.88;;;;;;;;;;5095978;28;20020;-71
2021/06/18 13:40:31;;;;;;;9.48;8.57;;;;;;;;;;5095932;28;20020;-73
2021/06/18 13:42:57;;;;;;;11.50;9.07;;;;;;;;;;5079705;28;20407;-74
2021/06/18 13:45:23;;;;;;;8.93;8.05;;;;;;;;;;5096052;28;20106;-74
2021/06/18 13:47:51;;;;;;;9.65;8.93;;;;;;;;;;5096639;28;20028;-73
2021/06/18 13:50:18;;;;;;;8.40;7.55;;;;;;;;;;5096459;28;20050;-71
2021/06/18 13:52:46;;;;;;;7.65;7.05;;;;;;;;;;5095055;28;20035;-72
2021/06/18 13:55:13;;;;;;;7.55;6.80;;;;;;;;;;5096165;28;20028;-72
2021/06/18 13:57:39;;;;;;;7.57;6.88;;;;;;;;;;5095891;28;20075;-70
2021/06/18 14:00:06;;;;;;;9.05;7.20;;;;;;;;;;5095681;28;20072;-70
2021/06/18 14:02:32;;;;;;;8.63;7.90;;;;;;;;;;5094016;28;20032;-69
2021/06/18 14:04:58;;;;;;;7.88;7.00;;;;;;;;;;5095615;28;20457;-70
2021/06/18 14:07:24;;;;;;;9.57;7.22;;;;;;;;;;5095735;28;20423;-72
2021/06/18 14:09:50;;;;;;;8.93;7.70;;;;;;;;;;5095450;28;20024;-71
2021/06/18 14:12:16;;;;;;;7.32;6.70;;;;;;;;;;5093828;28;20389;-71
2021/06/18 14:14:47;;;;;;;9.98;8.45;;;;;;;;;;5095067;28;20119;-70
2021/06/18 14:17:16;;;;;;;9.68;8.88;;;;;;;;;;5094511;28;20012;-70
2021/06/18 14:19:43;;;;;;;14.65;8.25;;;;;;;;;;5095546;28;20058;-72
2021/06/18 14:22:09;;;;;;;7.85;7.10;;;;;;;;;;5093770;28;20016;-71
2021/06/18 14:24:36;;;;;;;9.77;7.50;;;;;;;;;;5092893;28;20423;-72
2021/06/18 14:27:02;;;;;;;8.80;7.07;;;;;;;;;;5094619;28;21014;-72
2021/06/18 14:29:28;;;;;;;10.18;7.82;;;;;;;;;;5094677;28;20024;-74
2021/06/18 14:31:54;;;;;;;8.55;7.85;;;;;;;;;;5095186;28;20024;-72
2021/06/18 14:34:21;;;;;;;8.90;8.00;;;;;;;;;;5094419;28;20419;-72
2021/06/18 14:36:47;;;;;;;8.93;8.13;;;;;;;;;;5093041;28;20386;-70
2021/06/18 14:39:13;;;;;;;8.07;7.40;;;;;;;;;;5094768;28;20055;-70